createdAt,value
2022-10-31T00:00:46.692Z,15.10
2022-10-31T00:03:13.501Z,14.05
2022-10-31T00:05:50.391Z,14.68
2022-10-31T00:08:18.424Z,13.75
2022-10-31T00:10:46.226Z,13.75
2022-10-31T00:13:14.039Z,13.85
2022-10-31T00:15:41.649Z,14.30
2022-10-31T00:18:09.955Z,13.65
2022-10-31T00:20:37.377Z,13.95
2022-10-31T00:23:05.187Z,13.73
2022-10-31T00:25:35.331Z,14.15
2022-10-31T00:28:02.258Z,14.80
2022-10-31T00:30:29.251Z,13.57
2022-10-31T00:32:56.133Z,14.10
2022-10-31T00:35:22.913Z,13.77
2022-10-31T00:37:49.583Z,13.57
2022-10-31T00:40:16.227Z,14.10
2022-10-31T00:42:42.862Z,14.05
2022-10-31T00:45:12.633Z,13.80
2022-10-31T00:47:39.331Z,13.55
2022-10-31T00:50:06.902Z,13.85
2022-10-31T00:52:33.586Z,13.20
2022-10-31T00:55:00.317Z,14.40
2022-10-31T00:57:27.122Z,14.48
2022-10-31T00:59:53.807Z,14.65
2022-10-31T01:02:20.644Z,15.00
2022-10-31T01:04:47.386Z,13.88
2022-10-31T01:07:15.087Z,13.98
2022-10-31T01:09:41.915Z,14.35
2022-10-31T01:12:10.011Z,15.48
2022-10-31T01:14:36.632Z,14.18
2022-10-31T01:17:03.268Z,15.68
2022-10-31T01:19:29.908Z,14.77
2022-10-31T01:21:56.672Z,14.88
2022-10-31T01:24:23.392Z,14.70
2022-10-31T01:26:50.052Z,15.57
2022-10-31T01:29:16.694Z,15.80
2022-10-31T01:31:43.333Z,16.60
2022-10-31T01:34:14.479Z,14.35
2022-10-31T01:36:43.080Z,14.45
2022-10-31T01:39:12.638Z,15.20
2022-10-31T01:41:42.656Z,14.88
2022-10-31T01:44:15.335Z,15.40
2022-10-31T01:47:08.375Z,15.32
2022-10-31T01:49:43.166Z,14.20
2022-10-31T01:52:25.819Z,14.27
2022-10-31T01:55:11.055Z,13.55
2022-10-31T01:57:39.376Z,15.07
2022-10-31T02:00:09.455Z,14.88
2022-10-31T02:02:36.825Z,14.13
2022-10-31T02:05:06.708Z,14.95
2022-10-31T02:07:43.313Z,13.95
2022-10-31T02:10:09.996Z,15.90
2022-10-31T02:12:39.670Z,15.68
2022-10-31T02:15:06.985Z,15.82
2022-10-31T02:17:34.443Z,15.48
2022-10-31T02:20:00.999Z,16.98
2022-10-31T02:22:31.382Z,17.77
2022-10-31T02:25:35.136Z,16.60
2022-10-31T02:28:40.773Z,17.58
2022-10-31T02:31:22.726Z,16.08
2022-10-31T02:33:54.829Z,15.82
2022-10-31T02:36:48.232Z,17.23
2022-10-31T02:39:24.948Z,16.08
2022-10-31T02:42:09.738Z,16.73
2022-10-31T02:45:01.151Z,16.73
2022-10-31T02:47:30.396Z,16.42
2022-10-31T02:50:04.267Z,15.48
2022-10-31T02:52:33.031Z,14.82
2022-10-31T02:54:59.887Z,14.07
2022-10-31T02:57:30.350Z,15.50
2022-10-31T03:00:02.109Z,15.43
2022-10-31T03:02:56.896Z,14.95
2022-10-31T03:05:32.593Z,15.13
2022-10-31T03:08:11.224Z,15.38
2022-10-31T03:10:56.931Z,15.70
2022-10-31T03:16:08.676Z,15.45
2022-10-31T03:18:41.540Z,15.63
2022-10-31T03:21:17.889Z,15.35
2022-10-31T03:23:46.941Z,15.20
2022-10-31T03:26:14.879Z,15.90
2022-10-31T03:29:00.751Z,16.95
2022-10-31T03:31:34.560Z,16.35
2022-10-31T03:34:02.001Z,17.05
2022-10-31T03:36:31.353Z,18.25
2022-10-31T03:38:58.230Z,17.30
2022-10-31T03:41:27.159Z,18.10
2022-10-31T03:43:57.952Z,19.38
2022-10-31T03:46:25.166Z,19.23
2022-10-31T03:48:57.246Z,18.20
2022-10-31T03:51:24.368Z,17.15
2022-10-31T03:54:24.649Z,17.33
2022-10-31T03:56:54.752Z,19.17
2022-10-31T03:59:35.634Z,19.50
2022-10-31T04:02:08.418Z,18.42
2022-10-31T04:04:35.995Z,18.13
2022-10-31T04:07:04.060Z,18.35
2022-10-31T04:09:32.946Z,18.40
2022-10-31T04:12:01.451Z,18.30
2022-10-31T04:14:30.963Z,16.60
2022-10-31T04:16:57.701Z,17.42
2022-10-31T04:19:24.335Z,18.65
2022-10-31T04:21:51.031Z,16.92
2022-10-31T04:24:17.652Z,17.85
2022-10-31T04:26:44.282Z,17.35
2022-10-31T04:29:11.008Z,18.45
2022-10-31T04:31:37.661Z,18.73
2022-10-31T04:34:04.332Z,16.98
2022-10-31T04:36:31.082Z,18.00
2022-10-31T04:38:57.806Z,50.28
2022-10-31T04:41:24.435Z,22.80
2022-10-31T04:43:51.212Z,37.38
2022-10-31T04:46:17.837Z,25.02
2022-10-31T04:48:44.467Z,19.15
2022-10-31T04:51:11.095Z,19.92
2022-10-31T04:53:37.730Z,22.00
2022-10-31T04:56:04.578Z,23.23
2022-10-31T04:58:31.271Z,23.35
2022-10-31T05:00:57.981Z,20.90
2022-10-31T05:03:24.641Z,23.55
2022-10-31T05:05:51.457Z,26.70
2022-10-31T05:08:18.203Z,22.92
2022-10-31T05:10:44.907Z,32.45
2022-10-31T05:13:11.616Z,28.88
2022-10-31T05:15:38.398Z,31.45
2022-10-31T05:18:05.127Z,30.95
2022-10-31T05:20:32.472Z,30.00
2022-10-31T05:22:59.612Z,29.38
2022-10-31T05:25:27.752Z,27.38
2022-10-31T05:27:55.466Z,27.58
2022-10-31T05:30:27.428Z,25.98
2022-10-31T05:32:54.129Z,28.33
2022-10-31T05:35:23.451Z,26.15
2022-10-31T05:37:50.319Z,24.08
2022-10-31T05:40:18.444Z,24.35
2022-10-31T05:42:45.106Z,25.10
2022-10-31T05:45:14.781Z,28.77
2022-10-31T05:47:41.398Z,27.20
2022-10-31T05:50:09.055Z,23.77
2022-10-31T05:52:35.924Z,26.60
2022-10-31T05:55:02.586Z,23.65
2022-10-31T05:57:30.276Z,24.83
2022-10-31T05:59:56.971Z,22.67
2022-10-31T06:02:23.640Z,20.58
2022-10-31T06:04:50.313Z,19.38
2022-10-31T06:07:17.029Z,18.95
2022-10-31T06:09:43.864Z,23.70
2022-10-31T06:12:10.592Z,19.85
2022-10-31T06:14:37.215Z,21.13
2022-10-31T06:17:03.865Z,22.83
2022-10-31T06:19:30.487Z,19.00
2022-10-31T06:21:57.149Z,18.05
2022-10-31T06:24:23.782Z,18.05
2022-10-31T06:26:50.436Z,16.05
2022-10-31T06:29:17.043Z,17.02
2022-10-31T06:31:43.720Z,16.95
2022-10-31T06:34:10.366Z,17.10
2022-10-31T06:36:37.039Z,17.63
2022-10-31T06:39:03.704Z,17.00
2022-10-31T06:41:30.320Z,21.48
2022-10-31T06:43:56.961Z,21.08
2022-10-31T06:46:23.626Z,17.50
2022-10-31T06:48:50.323Z,19.65
2022-10-31T06:51:17.029Z,19.98
2022-10-31T06:53:43.726Z,19.08
2022-10-31T06:56:10.330Z,23.23
2022-10-31T06:58:36.979Z,24.10
2022-10-31T07:01:04.120Z,20.67
2022-10-31T07:03:31.058Z,21.75
2022-10-31T07:05:58.247Z,21.38
2022-10-31T07:08:24.942Z,20.65
2022-10-31T07:10:56.861Z,16.85
2022-10-31T07:13:26.626Z,17.98
2022-10-31T07:16:00.358Z,17.67
2022-10-31T07:18:27.033Z,17.52
2022-10-31T07:20:54.064Z,18.45
2022-10-31T07:23:20.789Z,18.50
2022-10-31T07:25:47.432Z,18.92
2022-10-31T07:28:14.139Z,18.48
2022-10-31T07:30:41.148Z,22.40
2022-10-31T07:33:07.824Z,24.10
2022-10-31T07:35:35.955Z,22.58
2022-10-31T07:38:13.305Z,21.52
2022-10-31T07:40:40.720Z,20.10
2022-10-31T07:43:13.051Z,20.73
2022-10-31T07:45:40.916Z,21.00
2022-10-31T07:48:07.663Z,19.35
2022-10-31T07:50:37.515Z,15.80
2022-10-31T07:53:09.177Z,17.15
2022-10-31T07:55:36.686Z,19.17
2022-10-31T07:58:08.904Z,17.20
2022-10-31T08:00:36.825Z,16.92
2022-10-31T08:03:08.836Z,16.42
2022-10-31T08:05:36.093Z,16.02
2022-10-31T08:08:04.018Z,16.88
2022-10-31T08:10:31.015Z,15.43
2022-10-31T08:13:05.659Z,15.40
2022-10-31T08:15:32.596Z,14.25
2022-10-31T08:17:59.446Z,14.73
2022-10-31T08:20:26.371Z,14.30
2022-10-31T08:23:03.966Z,14.60
2022-10-31T08:25:35.438Z,13.88
2022-10-31T08:28:06.011Z,15.15
2022-10-31T08:30:35.037Z,14.15
2022-10-31T08:33:01.652Z,14.50
2022-10-31T08:35:28.658Z,14.32
2022-10-31T08:37:56.377Z,14.95
2022-10-31T08:40:24.084Z,14.70
2022-10-31T08:43:17.444Z,14.75
2022-10-31T08:45:45.130Z,16.55
2022-10-31T08:48:13.963Z,15.30
2022-10-31T08:53:13.451Z,14.18
2022-10-31T08:55:42.353Z,15.55
2022-10-31T08:58:13.159Z,14.60
2022-10-31T09:00:40.049Z,13.60
2022-10-31T09:03:13.387Z,13.93
2022-10-31T09:05:40.588Z,15.27
2022-10-31T09:08:13.175Z,13.93
2022-10-31T09:10:42.946Z,15.10
2022-10-31T09:13:24.159Z,14.80
2022-10-31T09:15:53.000Z,15.75
2022-10-31T09:18:21.807Z,15.57
2022-10-31T09:23:20.361Z,14.02
2022-10-31T09:25:50.744Z,10.77
2022-10-31T09:28:22.582Z,10.38
2022-10-31T09:30:53.934Z,11.02
2022-10-31T09:33:20.765Z,10.25
2022-10-31T09:35:47.806Z,10.27
2022-10-31T09:38:16.896Z,7.63
2022-10-31T09:40:48.499Z,8.90
2022-10-31T09:43:17.847Z,9.10
2022-10-31T09:46:05.682Z,9.57
2022-10-31T09:48:42.358Z,8.75
2022-10-31T09:51:12.498Z,7.68
2022-10-31T09:53:47.133Z,9.55
2022-10-31T09:56:20.200Z,9.07
2022-10-31T09:58:49.490Z,8.07
2022-10-31T10:01:43.411Z,7.60
2022-10-31T10:04:30.307Z,7.25
2022-10-31T10:06:57.415Z,8.45
2022-10-31T10:09:26.727Z,8.40
2022-10-31T10:12:34.845Z,8.38
2022-10-31T10:15:24.807Z,8.35
2022-10-31T10:18:01.821Z,8.50
2022-10-31T10:20:58.250Z,8.60
2022-10-31T10:23:34.313Z,8.43
2022-10-31T10:26:21.657Z,8.02
2022-10-31T10:29:28.516Z,8.50
2022-10-31T10:31:56.363Z,7.72
2022-10-31T10:34:31.151Z,8.95
2022-10-31T10:37:06.460Z,7.22
2022-10-31T10:39:33.040Z,7.15
2022-10-31T10:42:19.146Z,7.07
2022-10-31T10:45:07.455Z,7.40
2022-10-31T10:47:45.455Z,7.53
2022-10-31T10:50:19.994Z,7.60
2022-10-31T10:53:22.595Z,7.13
2022-10-31T10:55:57.436Z,6.82
2022-10-31T10:58:24.154Z,6.68
2022-10-31T11:00:51.609Z,6.05
2022-10-31T11:03:19.441Z,7.32
2022-10-31T11:06:02.865Z,6.55
2022-10-31T11:08:32.206Z,6.25
2022-10-31T11:11:05.109Z,8.52
2022-10-31T11:13:32.982Z,6.75
2022-10-31T11:16:09.905Z,5.93
2022-10-31T11:18:43.120Z,6.40
2022-10-31T11:21:28.292Z,6.22
2022-10-31T11:24:10.424Z,6.63
2022-10-31T11:26:39.100Z,5.78
2022-10-31T11:29:06.664Z,5.88
2022-10-31T11:31:34.150Z,6.10
2022-10-31T11:34:02.653Z,5.40
2022-10-31T11:36:32.110Z,5.68
2022-10-31T11:39:01.239Z,6.07
2022-10-31T11:41:36.033Z,6.03
2022-10-31T11:44:33.626Z,8.93
2022-10-31T11:47:02.649Z,6.20
2022-10-31T11:49:36.277Z,6.50
2022-10-31T11:52:14.810Z,6.30
2022-10-31T11:55:00.661Z,5.53
2022-10-31T11:57:44.488Z,6.43
2022-10-31T12:03:24.664Z,5.82
2022-10-31T12:06:02.253Z,5.53
2022-10-31T12:08:36.955Z,5.18
2022-10-31T12:11:16.987Z,5.97
2022-10-31T12:13:52.659Z,5.88
2022-10-31T12:16:34.244Z,5.45
2022-10-31T12:19:06.819Z,6.15
2022-10-31T12:21:39.092Z,6.45
2022-10-31T12:24:18.304Z,5.90
2022-10-31T12:26:55.769Z,6.25
2022-10-31T12:29:29.254Z,6.22
2022-10-31T12:32:30.360Z,6.57
2022-10-31T12:35:16.337Z,5.82
2022-10-31T12:37:52.432Z,5.72
2022-10-31T12:40:47.876Z,6.40
2022-10-31T12:43:43.314Z,6.82
2022-10-31T12:46:23.580Z,6.43
2022-10-31T12:49:11.862Z,7.88
2022-10-31T12:52:01.707Z,7.38
2022-10-31T12:54:34.361Z,6.50
2022-10-31T12:57:12.943Z,6.60
2022-10-31T12:59:44.863Z,6.68
2022-10-31T13:02:38.616Z,5.85
2022-10-31T13:05:27.229Z,5.68
2022-10-31T13:07:59.074Z,5.88
2022-10-31T13:10:33.005Z,6.70
2022-10-31T13:13:06.363Z,6.03
2022-10-31T13:16:07.098Z,6.72
2022-10-31T13:18:56.235Z,5.60
2022-10-31T13:21:26.395Z,6.78
2022-10-31T13:23:53.406Z,5.97
2022-10-31T13:27:07.171Z,6.65
2022-10-31T13:29:39.584Z,5.90
2022-10-31T13:32:07.297Z,6.03
2022-10-31T13:34:47.333Z,6.15
2022-10-31T13:37:36.827Z,5.75
2022-10-31T13:40:35.373Z,5.80
2022-10-31T13:43:16.896Z,6.30
2022-10-31T13:45:51.788Z,6.57
2022-10-31T13:48:34.183Z,6.22
2022-10-31T13:51:07.271Z,6.15
2022-10-31T13:53:43.158Z,5.70
2022-10-31T13:56:09.737Z,6.13
2022-10-31T13:58:37.199Z,5.63
2022-10-31T14:01:14.747Z,6.40
2022-10-31T14:04:06.225Z,7.38
2022-10-31T14:06:38.016Z,6.63
2022-10-31T14:09:04.959Z,6.22
2022-10-31T14:11:36.131Z,5.72
2022-10-31T14:14:04.188Z,6.22
2022-10-31T14:16:32.921Z,10.98
2022-10-31T14:19:08.758Z,6.68
2022-10-31T14:21:43.647Z,5.97
2022-10-31T14:24:25.670Z,7.57
2022-10-31T14:26:54.768Z,6.80
2022-10-31T14:29:34.382Z,7.20
2022-10-31T14:32:15.612Z,7.40
2022-10-31T14:34:56.948Z,7.30
2022-10-31T14:38:01.447Z,7.10
2022-10-31T14:41:00.228Z,7.68
2022-10-31T14:43:32.882Z,8.07
2022-10-31T14:46:16.315Z,8.20
2022-10-31T14:49:04.980Z,6.93
2022-10-31T14:51:39.901Z,9.55
2022-10-31T14:54:07.690Z,7.75
2022-10-31T14:56:36.223Z,7.35
2022-10-31T14:59:10.315Z,7.97
2022-10-31T15:01:38.428Z,7.78
2022-10-31T15:04:24.148Z,8.63
2022-10-31T15:07:06.767Z,8.50
2022-10-31T15:09:35.647Z,8.57
2022-10-31T15:12:21.994Z,8.07
2022-10-31T15:14:48.630Z,7.70
2022-10-31T15:17:15.323Z,11.07
2022-10-31T15:19:43.393Z,8.43
2022-10-31T15:22:16.678Z,10.45
2022-10-31T15:24:44.005Z,9.75
2022-10-31T15:27:16.308Z,8.77
2022-10-31T15:29:54.584Z,7.47
2022-10-31T15:32:25.372Z,9.18
2022-10-31T15:34:52.943Z,9.52
2022-10-31T15:37:22.090Z,8.65
2022-10-31T15:39:49.988Z,11.30
2022-10-31T15:42:26.299Z,11.73
2022-10-31T15:45:26.342Z,11.05
2022-10-31T15:48:04.630Z,13.73
2022-10-31T15:50:41.566Z,12.95
2022-10-31T15:53:18.935Z,11.68
2022-10-31T15:55:57.607Z,10.20
2022-10-31T15:58:25.259Z,10.55
2022-10-31T16:01:28.655Z,12.20
2022-10-31T16:04:05.855Z,11.13
2022-10-31T16:06:34.504Z,11.45
2022-10-31T16:09:03.105Z,12.15
2022-10-31T16:11:36.169Z,11.60
2022-10-31T16:14:25.243Z,11.45
2022-10-31T16:16:54.929Z,11.50
2022-10-31T16:19:24.720Z,11.93
2022-10-31T16:21:55.612Z,10.60
2022-10-31T16:24:27.803Z,10.05
2022-10-31T16:26:56.408Z,13.68
2022-10-31T16:29:27.883Z,10.32
2022-10-31T16:31:54.564Z,12.60
2022-10-31T16:34:26.525Z,9.98
2022-10-31T16:36:53.837Z,10.02
2022-10-31T16:39:20.477Z,9.98
2022-10-31T16:41:52.705Z,10.23
2022-10-31T16:44:23.433Z,11.05
2022-10-31T16:47:13.297Z,11.25
2022-10-31T16:49:40.001Z,11.43
2022-10-31T16:52:06.659Z,12.30
2022-10-31T16:54:33.618Z,12.25
2022-10-31T16:57:01.025Z,10.55
2022-10-31T16:59:28.218Z,9.93
2022-10-31T17:01:55.436Z,10.18
2022-10-31T17:04:22.446Z,13.35
2022-10-31T17:06:49.106Z,10.93
2022-10-31T17:09:15.740Z,10.93
2022-10-31T17:11:49.515Z,12.38
2022-10-31T17:14:17.459Z,12.07
2022-10-31T17:16:44.235Z,11.20
2022-10-31T17:19:11.947Z,10.90
2022-10-31T17:21:38.959Z,12.35
2022-10-31T17:24:06.136Z,11.73
2022-10-31T17:26:32.900Z,13.10
2022-10-31T17:29:01.984Z,11.10
2022-10-31T17:31:31.066Z,10.50
2022-10-31T17:36:29.144Z,17.08
2022-10-31T17:38:55.883Z,13.73
2022-10-31T17:41:22.506Z,12.90
2022-10-31T17:43:49.229Z,14.77
2022-10-31T17:46:15.930Z,17.95
2022-10-31T17:48:42.605Z,16.67
2022-10-31T17:51:09.345Z,13.50
2022-10-31T17:53:36.083Z,13.55
2022-10-31T17:56:08.025Z,12.88
2022-10-31T17:58:35.982Z,12.27
2022-10-31T18:01:11.975Z,12.35
2022-10-31T18:03:39.040Z,12.68
2022-10-31T18:06:06.320Z,11.98
2022-10-31T18:08:35.503Z,12.82
2022-10-31T18:11:14.861Z,13.68
2022-10-31T18:13:41.933Z,15.45
2022-10-31T18:16:17.455Z,17.17
2022-10-31T18:18:44.106Z,18.85
2022-10-31T18:21:10.947Z,18.67
2022-10-31T18:23:37.758Z,18.17
2022-10-31T18:26:04.631Z,22.98
2022-10-31T18:28:31.280Z,29.45
2022-10-31T18:31:00.977Z,21.50
2022-10-31T18:33:28.063Z,24.20
2022-10-31T18:35:54.917Z,18.20
2022-10-31T18:38:21.564Z,17.95
2022-10-31T18:40:48.351Z,19.33
2022-10-31T18:43:15.000Z,20.85
2022-10-31T18:45:46.827Z,26.92
2022-10-31T18:48:14.661Z,23.23
2022-10-31T18:50:41.930Z,29.67
2022-10-31T18:53:08.622Z,27.67
2022-10-31T18:55:45.376Z,27.00
2022-10-31T18:58:16.173Z,33.83
2022-10-31T19:00:42.938Z,36.25
2022-10-31T19:03:09.619Z,41.38
2022-10-31T19:05:36.293Z,59.63
2022-10-31T19:08:03.069Z,75.60
2022-10-31T19:10:29.781Z,102.00
2022-10-31T19:12:56.430Z,101.68
2022-10-31T19:15:23.130Z,94.90
2022-10-31T19:17:50.015Z,95.57
2022-10-31T19:20:16.860Z,105.55
2022-10-31T19:22:43.702Z,111.28
2022-10-31T19:25:11.147Z,109.18
2022-10-31T19:27:38.676Z,107.40
2022-10-31T19:30:06.423Z,111.18
2022-10-31T19:32:33.227Z,113.55
2022-10-31T19:34:59.897Z,118.00
2022-10-31T19:37:26.570Z,116.05
2022-10-31T19:39:53.223Z,118.22
2022-10-31T19:42:20.272Z,130.80
2022-10-31T19:44:47.013Z,145.75
2022-10-31T19:47:13.670Z,137.85
2022-10-31T19:49:40.350Z,138.07
2022-10-31T19:52:07.046Z,131.32
2022-10-31T19:54:33.790Z,127.00
2022-10-31T19:57:00.410Z,113.40
2022-10-31T19:59:27.206Z,109.00
2022-10-31T20:01:53.858Z,104.47
2022-10-31T20:04:20.595Z,94.50
2022-10-31T20:06:47.214Z,87.65
2022-10-31T20:09:14.680Z,90.13
2022-10-31T20:11:42.938Z,90.65
2022-10-31T20:14:12.768Z,78.05
2022-10-31T20:16:39.874Z,66.95
2022-10-31T20:19:06.509Z,79.78
2022-10-31T20:21:37.198Z,57.55
2022-10-31T20:24:05.553Z,49.47
2022-10-31T20:26:33.067Z,49.72
2022-10-31T20:29:00.599Z,57.88
2022-10-31T20:31:31.031Z,61.03
2022-10-31T20:33:57.943Z,57.63
2022-10-31T20:36:25.377Z,61.50
2022-10-31T20:38:52.638Z,54.42
2022-10-31T20:41:19.762Z,50.33
2022-10-31T20:43:46.944Z,48.72
2022-10-31T20:46:16.135Z,44.22
2022-10-31T20:51:28.661Z,34.55
2022-10-31T20:53:57.034Z,42.45
2022-10-31T20:56:25.193Z,49.13
2022-10-31T20:58:52.247Z,40.70
2022-10-31T21:01:24.677Z,31.52
2022-10-31T21:03:51.851Z,27.77
2022-10-31T21:06:19.659Z,28.30
2022-10-31T21:08:46.581Z,34.35
2022-10-31T21:11:16.439Z,33.10
2022-10-31T21:13:45.227Z,28.90
2022-10-31T21:16:17.346Z,35.92
2022-10-31T21:18:45.078Z,29.35
2022-10-31T21:21:12.978Z,25.95
2022-10-31T21:23:39.997Z,28.33
2022-10-31T21:26:09.472Z,29.75
2022-10-31T21:28:36.158Z,26.98
2022-10-31T21:31:07.694Z,26.30
2022-10-31T21:33:34.603Z,25.13
2022-10-31T21:36:01.253Z,27.02
2022-10-31T21:38:27.944Z,22.67
2022-10-31T21:41:05.734Z,24.38
2022-10-31T21:43:35.410Z,23.52
2022-10-31T21:46:06.179Z,26.50
2022-10-31T21:48:33.325Z,26.02
2022-10-31T21:51:04.344Z,24.70
2022-10-31T21:53:49.862Z,25.23
2022-10-31T21:56:16.594Z,23.48
2022-10-31T21:58:43.252Z,22.00
2022-10-31T22:01:10.003Z,24.55
2022-10-31T22:03:40.130Z,24.75
2022-10-31T22:06:08.283Z,22.05
2022-10-31T22:08:34.951Z,22.30
2022-10-31T22:11:06.502Z,21.25
2022-10-31T22:13:34.073Z,21.52
2022-10-31T22:16:06.536Z,21.77
2022-10-31T22:18:33.243Z,20.30
2022-10-31T22:21:04.663Z,19.08
2022-10-31T22:23:31.512Z,20.15
2022-10-31T22:26:16.164Z,18.48
2022-10-31T22:28:44.740Z,16.67
2022-10-31T22:31:13.915Z,16.42
2022-10-31T22:36:12.617Z,15.48
2022-10-31T22:38:40.449Z,13.27
2022-10-31T22:41:09.113Z,15.90
2022-10-31T22:43:36.038Z,14.07
2022-10-31T22:46:05.370Z,14.95
2022-10-31T22:48:40.594Z,12.93
2022-10-31T22:51:09.404Z,14.05
2022-10-31T22:53:37.314Z,13.95
2022-10-31T22:56:04.976Z,13.68
2022-10-31T22:58:32.624Z,12.73
2022-10-31T23:00:59.848Z,12.90
2022-10-31T23:03:27.047Z,13.02
2022-10-31T23:06:00.413Z,13.23
2022-10-31T23:08:28.515Z,12.77
2022-10-31T23:10:55.315Z,11.70
2022-10-31T23:13:40.852Z,12.25
2022-10-31T23:16:08.842Z,12.82
2022-10-31T23:18:50.851Z,12.55
2022-10-31T23:21:44.124Z,12.30
2022-10-31T23:24:11.902Z,12.63
2022-10-31T23:26:59.898Z,13.15
2022-10-31T23:29:26.565Z,13.75
2022-10-31T23:31:56.179Z,12.95
2022-10-31T23:34:22.923Z,11.43
2022-10-31T23:36:49.923Z,12.13
2022-10-31T23:39:19.954Z,12.43
2022-10-31T23:41:49.491Z,13.15
2022-10-31T23:44:16.111Z,13.35
2022-10-31T23:46:42.846Z,14.88
2022-10-31T23:49:09.654Z,14.00
2022-10-31T23:51:36.300Z,12.10
2022-10-31T23:54:04.278Z,13.32
2022-10-31T23:56:30.898Z,12.52
2022-10-31T23:58:57.592Z,12.15
